sensor_id;sensor_type;location;lat;lon;timestamp;pressure;altitude;pressure_sealevel;temperature;humidity
20630;BME280;17386;43.846;25.950;2023-09-18T00:02:07;101845.50;;;20.70;94.30
20630;BME280;17386;43.846;25.950;2023-09-18T00:04:32;101845.00;;;20.64;94.56
20630;BME280;17386;43.846;25.950;2023-09-18T00:06:59;101852.50;;;20.59;94.93
20630;BME280;17386;43.846;25.950;2023-09-18T00:09:24;101845.66;;;20.53;95.19
20630;BME280;17386;43.846;25.950;2023-09-18T00:11:50;101836.00;;;20.49;95.47
20630;BME280;17386;43.846;25.950;2023-09-18T00:14:15;101833.63;;;20.43;95.58
20630;BME280;17386;43.846;25.950;2023-09-18T00:16:41;101835.34;;;20.45;95.69
20630;BME280;17386;43.846;25.950;2023-09-18T00:19:06;101831.28;;;20.37;96.00
20630;BME280;17386;43.846;25.950;2023-09-18T00:21:33;101836.69;;;20.37;96.13
20630;BME280;17386;43.846;25.950;2023-09-18T00:23:59;101834.97;;;20.36;96.54
20630;BME280;17386;43.846;25.950;2023-09-18T00:26:25;101830.97;;;20.27;96.92
20630;BME280;17386;43.846;25.950;2023-09-18T00:28:50;101834.91;;;20.21;97.02
20630;BME280;17386;43.846;25.950;2023-09-18T00:31:16;101836.72;;;20.21;97.51
20630;BME280;17386;43.846;25.950;2023-09-18T00:33:41;101837.88;;;20.17;97.79
20630;BME280;17386;43.846;25.950;2023-09-18T00:36:07;101838.66;;;20.19;97.63
20630;BME280;17386;43.846;25.950;2023-09-18T00:38:32;101833.28;;;20.19;97.78
20630;BME280;17386;43.846;25.950;2023-09-18T00:40:58;101829.00;;;20.15;97.87
20630;BME280;17386;43.846;25.950;2023-09-18T00:43:23;101835.34;;;20.14;98.00
20630;BME280;17386;43.846;25.950;2023-09-18T00:45:49;101831.88;;;20.12;97.96
20630;BME280;17386;43.846;25.950;2023-09-18T00:48:15;101832.75;;;20.12;97.93
20630;BME280;17386;43.846;25.950;2023-09-18T00:50:43;101834.94;;;20.06;97.94
20630;BME280;17386;43.846;25.950;2023-09-18T00:53:10;101826.84;;;20.06;98.20
20630;BME280;17386;43.846;25.950;2023-09-18T00:55:39;101833.13;;;20.06;98.22
20630;BME280;17386;43.846;25.950;2023-09-18T00:58:05;101831.44;;;20.04;98.45
20630;BME280;17386;43.846;25.950;2023-09-18T01:00:31;101831.63;;;20.01;98.71
20630;BME280;17386;43.846;25.950;2023-09-18T01:02:57;101824.59;;;19.98;98.50
20630;BME280;17386;43.846;25.950;2023-09-18T01:05:22;101834.69;;;19.94;98.78
20630;BME280;17386;43.846;25.950;2023-09-18T01:07:47;101834.94;;;19.90;98.88
20630;BME280;17386;43.846;25.950;2023-09-18T01:10:13;101830.69;;;19.86;99.11
20630;BME280;17386;43.846;25.950;2023-09-18T01:12:53;101832.78;;;19.81;99.42
20630;BME280;17386;43.846;25.950;2023-09-18T01:15:35;101829.31;;;19.79;99.20
20630;BME280;17386;43.846;25.950;2023-09-18T01:18:02;101827.38;;;19.81;99.42
20630;BME280;17386;43.846;25.950;2023-09-18T01:20:28;101831.81;;;19.82;99.60
20630;BME280;17386;43.846;25.950;2023-09-18T01:22:54;101822.09;;;19.79;99.55
20630;BME280;17386;43.846;25.950;2023-09-18T01:25:19;101823.03;;;19.78;99.84
20630;BME280;17386;43.846;25.950;2023-09-18T01:27:44;101825.84;;;19.77;99.72
20630;BME280;17386;43.846;25.950;2023-09-18T01:30:10;101825.91;;;19.75;99.96
20630;BME280;17386;43.846;25.950;2023-09-18T01:32:38;101815.47;;;19.69;99.78
20630;BME280;17386;43.846;25.950;2023-09-18T01:35:04;101825.13;;;19.73;99.96
20630;BME280;17386;43.846;25.950;2023-09-18T01:37:33;101822.44;;;19.73;99.97
20630;BME280;17386;43.846;25.950;2023-09-18T01:40:01;101815.41;;;19.71;99.97
20630;BME280;17386;43.846;25.950;2023-09-18T01:42:32;101818.16;;;19.69;100.00
20630;BME280;17386;43.846;25.950;2023-09-18T01:44:57;101818.34;;;19.66;100.00
20630;BME280;17386;43.846;25.950;2023-09-18T01:47:23;101824.69;;;19.65;100.00
20630;BME280;17386;43.846;25.950;2023-09-18T01:49:48;101823.84;;;19.64;100.00
20630;BME280;17386;43.846;25.950;2023-09-18T01:52:14;101826.69;;;19.61;100.00
20630;BME280;17386;43.846;25.950;2023-09-18T01:54:39;101830.25;;;19.62;100.00
20630;BME280;17386;43.846;25.950;2023-09-18T01:57:05;101828.41;;;19.62;100.00
20630;BME280;17386;43.846;25.950;2023-09-18T01:59:32;101839.19;;;19.62;100.00
20630;BME280;17386;43.846;25.950;2023-09-18T02:01:57;101835.81;;;19.59;100.00
20630;BME280;17386;43.846;25.950;2023-09-18T02:04:23;101835.06;;;19.55;100.00
20630;BME280;17386;43.846;25.950;2023-09-18T02:06:50;101838.81;;;19.53;100.00
20630;BME280;17386;43.846;25.950;2023-09-18T02:09:16;101826.03;;;19.40;100.00
20630;BME280;17386;43.846;25.950;2023-09-18T02:11:44;101843.78;;;19.45;100.00
20630;BME280;17386;43.846;25.950;2023-09-18T02:14:10;101849.06;;;19.46;100.00
20630;BME280;17386;43.846;25.950;2023-09-18T02:16:40;101845.41;;;19.47;100.00
20630;BME280;17386;43.846;25.950;2023-09-18T02:19:10;101843.69;;;19.46;100.00
20630;BME280;17386;43.846;25.950;2023-09-18T02:21:36;101839.41;;;19.42;100.00
20630;BME280;17386;43.846;25.950;2023-09-18T02:24:01;101851.25;;;19.39;100.00
20630;BME280;17386;43.846;25.950;2023-09-18T02:26:27;101843.38;;;19.35;100.00
20630;BME280;17386;43.846;25.950;2023-09-18T02:28:54;101848.72;;;19.36;100.00
20630;BME280;17386;43.846;25.950;2023-09-18T02:31:20;101857.59;;;19.38;100.00
20630;BME280;17386;43.846;25.950;2023-09-18T02:33:46;101854.16;;;19.35;100.00
20630;BME280;17386;43.846;25.950;2023-09-18T02:36:12;101850.88;;;19.30;100.00
20630;BME280;17386;43.846;25.950;2023-09-18T02:38:38;101866.09;;;19.31;100.00
20630;BME280;17386;43.846;25.950;2023-09-18T02:41:03;101863.50;;;19.29;100.00
20630;BME280;17386;43.846;25.950;2023-09-18T02:43:29;101868.16;;;19.26;100.00
20630;BME280;17386;43.846;25.950;2023-09-18T02:45:54;101863.00;;;19.21;100.00
20630;BME280;17386;43.846;25.950;2023-09-18T02:48:20;101873.09;;;19.18;100.00
20630;BME280;17386;43.846;25.950;2023-09-18T02:50:45;101862.56;;;19.13;100.00
20630;BME280;17386;43.846;25.950;2023-09-18T02:53:21;101866.53;;;19.06;100.00
20630;BME280;17386;43.846;25.950;2023-09-18T02:55:50;101877.38;;;19.04;100.00
20630;BME280;17386;43.846;25.950;2023-09-18T02:58:16;101870.59;;;18.97;100.00
20630;BME280;17386;43.846;25.950;2023-09-18T03:00:49;101878.66;;;18.97;100.00
20630;BME280;17386;43.846;25.950;2023-09-18T03:03:15;101873.38;;;18.96;100.00
20630;BME280;17386;43.846;25.950;2023-09-18T03:05:42;101871.69;;;18.93;100.00
20630;BME280;17386;43.846;25.950;2023-09-18T03:08:08;101878.91;;;18.93;100.00
20630;BME280;17386;43.846;25.950;2023-09-18T03:10:38;101887.28;;;18.86;100.00
20630;BME280;17386;43.846;25.950;2023-09-18T03:13:05;101865.28;;;18.78;100.00
20630;BME280;17386;43.846;25.950;2023-09-18T03:15:31;101883.13;;;18.81;100.00
20630;BME280;17386;43.846;25.950;2023-09-18T03:17:58;101885.81;;;18.81;100.00
20630;BME280;17386;43.846;25.950;2023-09-18T03:20:24;101897.50;;;18.80;100.00
20630;BME280;17386;43.846;25.950;2023-09-18T03:22:54;101894.03;;;18.78;100.00
20630;BME280;17386;43.846;25.950;2023-09-18T03:25:19;101895.84;;;18.77;100.00
20630;BME280;17386;43.846;25.950;2023-09-18T03:27:45;101897.69;;;18.77;100.00
20630;BME280;17386;43.846;25.950;2023-09-18T03:30:10;101886.19;;;18.73;100.00
20630;BME280;17386;43.846;25.950;2023-09-18T03:32:42;101893.41;;;18.73;100.00
20630;BME280;17386;43.846;25.950;2023-09-18T03:35:09;101892.53;;;18.72;100.00
20630;BME280;17386;43.846;25.950;2023-09-18T03:37:41;101899.81;;;18.70;100.00
20630;BME280;17386;43.846;25.950;2023-09-18T03:40:08;101902.69;;;18.67;100.00
20630;BME280;17386;43.846;25.950;2023-09-18T03:42:33;101896.44;;;18.65;100.00
20630;BME280;17386;43.846;25.950;2023-09-18T03:44:59;101893.84;;;18.64;100.00
20630;BME280;17386;43.846;25.950;2023-09-18T03:47:24;101897.41;;;18.64;100.00
20630;BME280;17386;43.846;25.950;2023-09-18T03:49:50;101897.50;;;18.63;100.00
20630;BME280;17386;43.846;25.950;2023-09-18T03:52:15;101901.13;;;18.62;100.00
20630;BME280;17386;43.846;25.950;2023-09-18T03:54:40;101910.56;;;18.53;100.00
20630;BME280;17386;43.846;25.950;2023-09-18T03:57:06;101910.78;;;18.48;100.00
20630;BME280;17386;43.846;25.950;2023-09-18T03:59:31;101912.59;;;18.48;100.00
20630;BME280;17386;43.846;25.950;2023-09-18T04:01:57;101904.75;;;18.43;100.00
20630;BME280;17386;43.846;25.950;2023-09-18T04:04:22;101917.03;;;18.49;100.00
20630;BME280;17386;43.846;25.950;2023-09-18T04:06:47;101927.63;;;18.52;100.00
20630;BME280;17386;43.846;25.950;2023-09-18T04:09:15;101914.34;;;18.49;100.00
20630;BME280;17386;43.846;25.950;2023-09-18T04:11:40;101919.06;;;18.44;100.00
20630;BME280;17386;43.846;25.950;2023-09-18T04:14:05;101920.75;;;18.46;100.00
20630;BME280;17386;43.846;25.950;2023-09-18T04:16:31;101922.00;;;18.39;100.00
20630;BME280;17386;43.846;25.950;2023-09-18T04:19:00;101913.19;;;18.36;100.00
20630;BME280;17386;43.846;25.950;2023-09-18T04:21:26;101918.59;;;18.36;100.00
20630;BME280;17386;43.846;25.950;2023-09-18T04:23:51;101920.41;;;18.35;100.00
20630;BME280;17386;43.846;25.950;2023-09-18T04:26:22;101914.66;;;18.24;100.00
20630;BME280;17386;43.846;25.950;2023-09-18T04:28:48;101919.19;;;18.23;100.00
20630;BME280;17386;43.846;25.950;2023-09-18T04:31:13;101916.41;;;18.25;100.00
20630;BME280;17386;43.846;25.950;2023-09-18T04:33:39;101911.03;;;18.25;100.00
20630;BME280;17386;43.846;25.950;2023-09-18T04:36:04;101915.69;;;18.21;100.00
20630;BME280;17386;43.846;25.950;2023-09-18T04:38:29;101919.25;;;18.22;100.00
20630;BME280;17386;43.846;25.950;2023-09-18T04:40:59;101906.19;;;18.14;100.00
20630;BME280;17386;43.846;25.950;2023-09-18T04:43:24;101925.22;;;18.28;100.00
20630;BME280;17386;43.846;25.950;2023-09-18T04:45:50;101927.69;;;18.33;100.00
20630;BME280;17386;43.846;25.950;2023-09-18T04:48:16;101924.91;;;18.35;100.00
20630;BME280;17386;43.846;25.950;2023-09-18T04:50:41;101934.56;;;18.39;100.00
20630;BME280;17386;43.846;25.950;2023-09-18T04:53:07;101932.44;;;18.45;100.00
20630;BME280;17386;43.846;25.950;2023-09-18T04:55:34;101939.63;;;18.45;100.00
20630;BME280;17386;43.846;25.950;2023-09-18T04:57:59;101938.19;;;18.38;100.00
20630;BME280;17386;43.846;25.950;2023-09-18T05:00:24;101931.88;;;18.39;100.00
20630;BME280;17386;43.846;25.950;2023-09-18T05:02:52;101932.94;;;18.53;100.00
20630;BME280;17386;43.846;25.950;2023-09-18T05:05:17;101936.13;;;18.62;100.00
20630;BME280;17386;43.846;25.950;2023-09-18T05:07:43;101930.66;;;18.63;100.00
20630;BME280;17386;43.846;25.950;2023-09-18T05:10:09;101929.44;;;18.70;100.00
20630;BME280;17386;43.846;25.950;2023-09-18T05:12:35;101933.16;;;18.68;100.00
20630;BME280;17386;43.846;25.950;2023-09-18T05:15:00;101936.47;;;18.73;100.00
20630;BME280;17386;43.846;25.950;2023-09-18T05:17:45;101930.47;;;18.85;100.00
20630;BME280;17386;43.846;25.950;2023-09-18T05:20:20;101930.16;;;18.91;100.00
20630;BME280;17386;43.846;25.950;2023-09-18T05:22:50;101931.47;;;19.00;100.00
20630;BME280;17386;43.846;25.950;2023-09-18T05:25:15;101930.47;;;19.02;100.00
20630;BME280;17386;43.846;25.950;2023-09-18T05:27:41;101937.50;;;19.05;100.00
20630;BME280;17386;43.846;25.950;2023-09-18T05:32:35;101938.94;;;19.12;100.00
20630;BME280;17386;43.846;25.950;2023-09-18T05:35:01;101931.97;;;19.08;100.00
20630;BME280;17386;43.846;25.950;2023-09-18T05:37:30;101935.28;;;19.13;100.00
20630;BME280;17386;43.846;25.950;2023-09-18T05:39:55;101937.50;;;19.22;100.00
20630;BME280;17386;43.846;25.950;2023-09-18T05:42:21;101937.09;;;19.30;100.00
20630;BME280;17386;43.846;25.950;2023-09-18T05:44:47;101936.38;;;19.44;100.00
20630;BME280;17386;43.846;25.950;2023-09-18T05:47:12;101934.03;;;19.53;100.00
20630;BME280;17386;43.846;25.950;2023-09-18T05:49:38;101936.09;;;19.65;100.00
20630;BME280;17386;43.846;25.950;2023-09-18T05:52:03;101946.66;;;19.86;100.00
20630;BME280;17386;43.846;25.950;2023-09-18T05:54:28;101944.16;;;19.99;100.00
20630;BME280;17386;43.846;25.950;2023-09-18T05:56:54;101950.59;;;20.12;100.00
20630;BME280;17386;43.846;25.950;2023-09-18T05:59:19;101953.00;;;20.16;100.00
20630;BME280;17386;43.846;25.950;2023-09-18T06:01:45;101948.66;;;20.30;100.00
20630;BME280;17386;43.846;25.950;2023-09-18T06:04:12;101948.50;;;20.33;100.00
20630;BME280;17386;43.846;25.950;2023-09-18T06:06:38;101962.31;;;20.42;99.67
20630;BME280;17386;43.846;25.950;2023-09-18T06:09:03;101956.78;;;20.45;99.14
20630;BME280;17386;43.846;25.950;2023-09-18T06:11:29;101954.88;;;20.47;98.70
20630;BME280;17386;43.846;25.950;2023-09-18T06:13:54;101954.22;;;20.58;98.77
20630;BME280;17386;43.846;25.950;2023-09-18T06:16:19;101957.28;;;20.68;97.94
20630;BME280;17386;43.846;25.950;2023-09-18T06:18:45;101963.09;;;20.76;97.43
20630;BME280;17386;43.846;25.950;2023-09-18T06:21:10;101959.56;;;20.90;97.01
20630;BME280;17386;43.846;25.950;2023-09-18T06:23:36;101963.47;;;21.00;96.23
20630;BME280;17386;43.846;25.950;2023-09-18T06:26:01;101960.31;;;21.08;95.56
20630;BME280;17386;43.846;25.950;2023-09-18T06:28:27;101957.41;;;21.11;94.87
20630;BME280;17386;43.846;25.950;2023-09-18T06:30:52;101967.47;;;21.23;94.61
20630;BME280;17386;43.846;25.950;2023-09-18T06:33:19;101962.69;;;21.28;93.87
20630;BME280;17386;43.846;25.950;2023-09-18T06:35:44;101960.00;;;21.28;93.58
20630;BME280;17386;43.846;25.950;2023-09-18T06:38:10;101958.28;;;21.41;93.49
20630;BME280;17386;43.846;25.950;2023-09-18T06:40:38;101964.94;;;21.50;92.94
20630;BME280;17386;43.846;25.950;2023-09-18T06:43:04;101963.38;;;21.60;92.76
20630;BME280;17386;43.846;25.950;2023-09-18T06:45:30;101962.72;;;21.71;92.30
20630;BME280;17386;43.846;25.950;2023-09-18T06:47:56;101959.72;;;21.75;91.40
20630;BME280;17386;43.846;25.950;2023-09-18T06:50:21;101957.50;;;21.68;91.36
20630;BME280;17386;43.846;25.950;2023-09-18T06:52:46;101961.47;;;21.76;91.49
20630;BME280;17386;43.846;25.950;2023-09-18T06:55:12;101961.09;;;21.82;90.81
20630;BME280;17386;43.846;25.950;2023-09-18T06:57:38;101955.56;;;21.84;90.15
20630;BME280;17386;43.846;25.950;2023-09-18T07:00:04;101954.88;;;21.95;89.82
20630;BME280;17386;43.846;25.950;2023-09-18T07:02:30;101949.66;;;22.06;89.99
20630;BME280;17386;43.846;25.950;2023-09-18T07:04:56;101949.47;;;21.95;89.04
20630;BME280;17386;43.846;25.950;2023-09-18T07:07:21;101954.81;;;22.10;89.15
20630;BME280;17386;43.846;25.950;2023-09-18T07:09:51;101964.03;;;22.21;89.95
20630;BME280;17386;43.846;25.950;2023-09-18T07:12:16;101967.44;;;22.24;91.53
20630;BME280;17386;43.846;25.950;2023-09-18T07:14:48;101966.81;;;22.33;91.56
20630;BME280;17386;43.846;25.950;2023-09-18T07:17:13;101967.66;;;22.48;91.26
20630;BME280;17386;43.846;25.950;2023-09-18T07:19:39;101966.06;;;22.58;90.24
20630;BME280;17386;43.846;25.950;2023-09-18T07:22:04;101969.69;;;22.72;89.86
20630;BME280;17386;43.846;25.950;2023-09-18T07:24:30;101971.41;;;22.87;89.46
20630;BME280;17386;43.846;25.950;2023-09-18T07:26:55;101966.09;;;22.98;88.20
20630;BME280;17386;43.846;25.950;2023-09-18T07:29:22;101961.78;;;23.08;87.66
20630;BME280;17386;43.846;25.950;2023-09-18T07:31:50;101969.16;;;23.19;86.96
20630;BME280;17386;43.846;25.950;2023-09-18T07:34:16;101972.00;;;23.30;86.61
20630;BME280;17386;43.846;25.950;2023-09-18T07:36:42;101964.53;;;23.46;85.57
20630;BME280;17386;43.846;25.950;2023-09-18T07:39:09;101968.03;;;23.61;83.19
20630;BME280;17386;43.846;25.950;2023-09-18T07:41:35;101953.94;;;23.69;82.59
20630;BME280;17386;43.846;25.950;2023-09-18T07:44:00;101968.88;;;23.87;81.80
20630;BME280;17386;43.846;25.950;2023-09-18T07:46:26;101966.81;;;23.91;81.17
20630;BME280;17386;43.846;25.950;2023-09-18T07:48:51;101958.44;;;23.94;80.45
20630;BME280;17386;43.846;25.950;2023-09-18T07:51:17;101975.34;;;24.10;80.08
20630;BME280;17386;43.846;25.950;2023-09-18T07:53:42;101968.91;;;24.24;79.90
20630;BME280;17386;43.846;25.950;2023-09-18T07:56:08;101969.13;;;24.34;79.46
20630;BME280;17386;43.846;25.950;2023-09-18T07:58:34;101982.91;;;24.31;74.40
20630;BME280;17386;43.846;25.950;2023-09-18T08:01:04;101977.78;;;24.26;74.79
20630;BME280;17386;43.846;25.950;2023-09-18T08:03:30;101979.41;;;24.28;74.19
20630;BME280;17386;43.846;25.950;2023-09-18T08:05:56;101976.28;;;24.35;74.40
20630;BME280;17386;43.846;25.950;2023-09-18T08:08:22;101962.91;;;24.32;73.41
20630;BME280;17386;43.846;25.950;2023-09-18T08:10:49;101971.38;;;24.27;72.78
20630;BME280;17386;43.846;25.950;2023-09-18T08:13:15;101972.47;;;24.37;72.18
20630;BME280;17386;43.846;25.950;2023-09-18T08:15:41;101961.91;;;24.45;72.74
20630;BME280;17386;43.846;25.950;2023-09-18T08:18:06;101960.88;;;24.59;72.52
20630;BME280;17386;43.846;25.950;2023-09-18T08:20:32;101951.03;;;24.69;71.15
20630;BME280;17386;43.846;25.950;2023-09-18T08:22:58;101955.00;;;24.76;71.39
20630;BME280;17386;43.846;25.950;2023-09-18T08:25:26;101953.91;;;24.79;69.61
20630;BME280;17386;43.846;25.950;2023-09-18T08:27:52;101947.25;;;24.83;69.19
20630;BME280;17386;43.846;25.950;2023-09-18T08:30:18;101941.13;;;24.68;69.39
20630;BME280;17386;43.846;25.950;2023-09-18T08:32:46;101942.06;;;24.80;69.68
20630;BME280;17386;43.846;25.950;2023-09-18T08:35:12;101940.59;;;24.87;69.70
20630;BME280;17386;43.846;25.950;2023-09-18T08:37:37;101945.69;;;24.92;69.19
20630;BME280;17386;43.846;25.950;2023-09-18T08:40:03;101935.31;;;24.97;68.40
20630;BME280;17386;43.846;25.950;2023-09-18T08:42:36;101948.03;;;24.96;67.90
20630;BME280;17386;43.846;25.950;2023-09-18T08:45:07;101940.75;;;24.97;67.84
20630;BME280;17386;43.846;25.950;2023-09-18T08:47:34;101940.41;;;25.01;67.85
20630;BME280;17386;43.846;25.950;2023-09-18T08:50:00;101941.25;;;25.02;66.89
20630;BME280;17386;43.846;25.950;2023-09-18T08:52:27;101933.09;;;25.02;66.64
20630;BME280;17386;43.846;25.950;2023-09-18T08:54:54;101932.19;;;24.90;67.42
20630;BME280;17386;43.846;25.950;2023-09-18T08:57:21;101928.13;;;24.96;68.26
20630;BME280;17386;43.846;25.950;2023-09-18T08:59:48;101936.25;;;25.08;68.68
20630;BME280;17386;43.846;25.950;2023-09-18T09:02:14;101925.78;;;25.26;67.70
20630;BME280;17386;43.846;25.950;2023-09-18T09:04:40;101923.81;;;25.51;65.85
20630;BME280;17386;43.846;25.950;2023-09-18T09:07:05;101925.59;;;25.74;65.67
20630;BME280;17386;43.846;25.950;2023-09-18T09:09:31;101924.56;;;25.98;64.30
20630;BME280;17386;43.846;25.950;2023-09-18T09:11:57;101920.25;;;25.84;63.65
20630;BME280;17386;43.846;25.950;2023-09-18T09:14:22;101912.72;;;25.54;65.16
20630;BME280;17386;43.846;25.950;2023-09-18T09:16:53;101910.31;;;25.38;65.95
20630;BME280;17386;43.846;25.950;2023-09-18T09:19:29;101906.13;;;25.34;65.78
20630;BME280;17386;43.846;25.950;2023-09-18T09:21:55;101903.91;;;25.28;66.51
20630;BME280;17386;43.846;25.950;2023-09-18T09:24:42;101905.53;;;25.42;64.95
20630;BME280;17386;43.846;25.950;2023-09-18T09:27:09;101899.56;;;25.14;65.60
20630;BME280;17386;43.846;25.950;2023-09-18T09:29:35;101903.19;;;25.02;66.02
20630;BME280;17386;43.846;25.950;2023-09-18T09:32:13;101900.56;;;25.35;65.08
20630;BME280;17386;43.846;25.950;2023-09-18T09:34:41;101898.81;;;25.46;64.40
20630;BME280;17386;43.846;25.950;2023-09-18T09:37:07;101898.81;;;25.46;63.88
20630;BME280;17386;43.846;25.950;2023-09-18T09:39:33;101890.19;;;25.52;64.11
20630;BME280;17386;43.846;25.950;2023-09-18T09:42:02;101878.81;;;25.69;64.95
20630;BME280;17386;43.846;25.950;2023-09-18T09:44:32;101884.97;;;25.94;62.54
20630;BME280;17386;43.846;25.950;2023-09-18T09:46:59;101885.94;;;26.15;61.66
20630;BME280;17386;43.846;25.950;2023-09-18T09:49:24;101879.72;;;26.24;60.88
20630;BME280;17386;43.846;25.950;2023-09-18T09:51:53;101875.91;;;26.15;61.05
20630;BME280;17386;43.846;25.950;2023-09-18T09:54:39;101878.00;;;26.12;61.45
20630;BME280;17386;43.846;25.950;2023-09-18T09:57:06;101871.25;;;25.95;61.91
20630;BME280;17386;43.846;25.950;2023-09-18T09:59:31;101868.28;;;25.87;61.68
20630;BME280;17386;43.846;25.950;2023-09-18T10:02:00;101866.31;;;25.89;61.30
20630;BME280;17386;43.846;25.950;2023-09-18T10:04:27;101866.25;;;26.00;61.01
20630;BME280;17386;43.846;25.950;2023-09-18T10:06:58;101854.16;;;25.93;60.90
20630;BME280;17386;43.846;25.950;2023-09-18T10:09:28;101854.91;;;25.95;60.64
20630;BME280;17386;43.846;25.950;2023-09-18T10:11:56;101853.06;;;25.96;60.26
20630;BME280;17386;43.846;25.950;2023-09-18T10:14:33;101848.97;;;26.01;60.24
20630;BME280;17386;43.846;25.950;2023-09-18T10:17:18;101848.22;;;25.99;60.41
20630;BME280;17386;43.846;25.950;2023-09-18T10:24:47;101844.31;;;25.81;59.20
20630;BME280;17386;43.846;25.950;2023-09-18T10:27:16;101836.22;;;25.90;56.47
20630;BME280;17386;43.846;25.950;2023-09-18T10:29:45;101844.75;;;25.97;54.91
20630;BME280;17386;43.846;25.950;2023-09-18T10:32:14;101847.69;;;26.05;56.31
20630;BME280;17386;43.846;25.950;2023-09-18T10:34:41;101836.44;;;26.10;60.46
20630;BME280;17386;43.846;25.950;2023-09-18T10:37:10;101834.69;;;26.09;61.64
20630;BME280;17386;43.846;25.950;2023-09-18T10:39:38;101831.28;;;25.96;62.42
20630;BME280;17386;43.846;25.950;2023-09-18T10:42:07;101835.44;;;26.00;62.45
20630;BME280;17386;43.846;25.950;2023-09-18T10:44:32;101819.41;;;25.85;61.92
20630;BME280;17386;43.846;25.950;2023-09-18T10:47:00;101821.63;;;25.91;62.02
20630;BME280;17386;43.846;25.950;2023-09-18T10:49:26;101816.16;;;26.03;61.51
20630;BME280;17386;43.846;25.950;2023-09-18T10:51:55;101818.47;;;26.07;59.92
20630;BME280;17386;43.846;25.950;2023-09-18T10:54:23;101816.84;;;26.16;59.98
20630;BME280;17386;43.846;25.950;2023-09-18T10:56:49;101812.41;;;26.15;59.62
20630;BME280;17386;43.846;25.950;2023-09-18T10:59:15;101809.03;;;26.23;60.25
20630;BME280;17386;43.846;25.950;2023-09-18T11:01:42;101802.31;;;26.27;59.81
20630;BME280;17386;43.846;25.950;2023-09-18T11:04:08;101799.44;;;26.28;59.27
20630;BME280;17386;43.846;25.950;2023-09-18T11:09:24;101804.06;;;26.49;57.46
20630;BME280;17386;43.846;25.950;2023-09-18T11:12:09;101798.72;;;26.58;57.17
20630;BME280;17386;43.846;25.950;2023-09-18T11:14:46;101797.03;;;26.67;54.67
20630;BME280;17386;43.846;25.950;2023-09-18T11:20:09;101800.56;;;26.58;53.43
20630;BME280;17386;43.846;25.950;2023-09-18T11:22:38;101791.00;;;26.63;53.61
20630;BME280;17386;43.846;25.950;2023-09-18T11:27:55;101780.88;;;26.75;nan
20630;BME280;17386;43.846;25.950;2023-09-18T11:30:21;101785.25;;;26.87;51.82
20630;BME280;17386;43.846;25.950;2023-09-18T11:32:47;101791.06;;;27.04;51.26
20630;BME280;17386;43.846;25.950;2023-09-18T11:35:13;101785.97;;;27.10;50.51
20630;BME280;17386;43.846;25.950;2023-09-18T11:37:42;101789.69;;;27.09;50.18
20630;BME280;17386;43.846;25.950;2023-09-18T11:40:28;101788.13;;;27.16;50.39
20630;BME280;17386;43.846;25.950;2023-09-18T11:43:22;101786.03;;;27.20;49.86
20630;BME280;17386;43.846;25.950;2023-09-18T11:45:56;101783.16;;;27.21;50.02
20630;BME280;17386;43.846;25.950;2023-09-18T11:48:25;101770.38;;;27.22;49.27
20630;BME280;17386;43.846;25.950;2023-09-18T11:50:56;101766.09;;;27.29;49.36
20630;BME280;17386;43.846;25.950;2023-09-18T11:53:24;101764.69;;;27.44;49.19
20630;BME280;17386;43.846;25.950;2023-09-18T11:55:50;101753.81;;;27.64;48.39
20630;BME280;17386;43.846;25.950;2023-09-18T11:58:15;101762.47;;;27.69;46.72
20630;BME280;17386;43.846;25.950;2023-09-18T12:00:41;101767.66;;;27.72;47.10
20630;BME280;17386;43.846;25.950;2023-09-18T12:03:14;101764.25;;;27.79;46.77
20630;BME280;17386;43.846;25.950;2023-09-18T12:06:01;101754.19;;;27.80;47.17
20630;BME280;17386;43.846;25.950;2023-09-18T12:08:29;101761.91;;;27.75;47.58
20630;BME280;17386;43.846;25.950;2023-09-18T12:10:56;101759.75;;;27.78;48.64
20630;BME280;17386;43.846;25.950;2023-09-18T12:13:25;101750.13;;;27.74;49.54
20630;BME280;17386;43.846;25.950;2023-09-18T12:16:02;101752.31;;;27.80;49.78
20630;BME280;17386;43.846;25.950;2023-09-18T12:18:31;101741.78;;;27.86;49.60
20630;BME280;17386;43.846;25.950;2023-09-18T12:20:58;101738.94;;;27.97;49.39
20630;BME280;17386;43.846;25.950;2023-09-18T12:23:26;101734.78;;;28.02;49.02
20630;BME280;17386;43.846;25.950;2023-09-18T12:26:00;101733.91;;;27.92;49.20
20630;BME280;17386;43.846;25.950;2023-09-18T12:28:26;101726.88;;;27.90;49.35
20630;BME280;17386;43.846;25.950;2023-09-18T12:30:58;101727.09;;;27.58;49.31
20630;BME280;17386;43.846;25.950;2023-09-18T12:33:24;101726.81;;;27.61;49.57
20630;BME280;17386;43.846;25.950;2023-09-18T12:35:50;101722.63;;;27.57;50.13
20630;BME280;17386;43.846;25.950;2023-09-18T12:38:17;101718.03;;;27.57;49.43
20630;BME280;17386;43.846;25.950;2023-09-18T12:40:50;101713.59;;;27.46;48.90
20630;BME280;17386;43.846;25.950;2023-09-18T12:43:15;101717.63;;;27.62;48.71
20630;BME280;17386;43.846;25.950;2023-09-18T12:45:43;101715.03;;;27.60;48.18
20630;BME280;17386;43.846;25.950;2023-09-18T12:48:09;101715.91;;;27.61;48.32
20630;BME280;17386;43.846;25.950;2023-09-18T12:50:35;101717.31;;;27.55;48.30
20630;BME280;17386;43.846;25.950;2023-09-18T12:53:11;101704.38;;;27.47;48.82